Time;durP1;ratioP1;P1;durP2;ratioP2;P2;SDS_P1;SDS_P2;PMS_P1;PMS_P2;Temp;Humidity;BMP_temperature;BMP_pressure;BME280_temperature;BME280_humidity;BME280_pressure;Samples;Min_cycle;Max_cycle;Signal;HPM_P1;HPM_P2
2024/01/13 00:02:04;;;;;;;6.65;1.85;;;;;;;;;;5115657;28;20047;-78
2024/01/13 00:04:30;;;;;;;7.60;2.17;;;;;;;;;;5097210;28;20391;-79
2024/01/13 00:06:56;;;;;;;6.22;2.22;;;;;;;;;;5115019;28;20055;-80
2024/01/13 00:09:22;;;;;;;8.63;2.50;;;;;;;;;;5096887;28;20054;-80
2024/01/13 00:11:49;;;;;;;7.45;2.60;;;;;;;;;;5096654;28;20043;-80
2024/01/13 00:14:15;;;;;;;7.18;2.35;;;;;;;;;;5097537;28;20043;-79
2024/01/13 00:16:41;;;;;;;6.20;2.00;;;;;;;;;;5114824;28;20083;-79
2024/01/13 00:19:07;;;;;;;6.82;2.50;;;;;;;;;;5115231;28;20069;-79
2024/01/13 00:21:33;;;;;;;6.57;2.42;;;;;;;;;;5115679;28;20047;-78
2024/01/13 00:23:59;;;;;;;8.63;1.98;;;;;;;;;;5116359;28;20067;-80
2024/01/13 00:26:25;;;;;;;62.10;5.72;;;;;;;;;;5079538;28;20052;-81
2024/01/13 00:28:51;;;;;;;6.95;2.60;;;;;;;;;;5080157;28;20094;-80
2024/01/13 00:31:17;;;;;;;6.10;2.22;;;;;;;;;;5114713;28;20076;-80
2024/01/13 00:33:43;;;;;;;14.23;2.85;;;;;;;;;;5115328;28;20047;-80
2024/01/13 00:36:12;;;;;;;6.45;2.28;;;;;;;;;;5114434;28;20048;-79
2024/01/13 00:38:39;;;;;;;9.85;2.53;;;;;;;;;;5113936;28;20169;-79
2024/01/13 00:41:05;;;;;;;8.48;1.88;;;;;;;;;;5096329;28;20105;-79
2024/01/13 00:43:31;;;;;;;7.20;2.05;;;;;;;;;;5079207;28;20054;-79
2024/01/13 00:45:57;;;;;;;5.75;1.90;;;;;;;;;;5114231;28;20047;-79
2024/01/13 00:48:23;;;;;;;7.18;1.77;;;;;;;;;;5095701;28;20509;-79
2024/01/13 00:50:49;;;;;;;5.43;1.90;;;;;;;;;;5113945;28;20495;-80
2024/01/13 00:53:16;;;;;;;5.40;1.60;;;;;;;;;;5095882;28;20047;-79
2024/01/13 00:55:42;;;;;;;5.78;1.60;;;;;;;;;;5114091;28;20452;-80
2024/01/13 00:58:08;;;;;;;4.30;1.50;;;;;;;;;;5095899;28;20075;-78
2024/01/13 01:00:34;;;;;;;7.60;1.70;;;;;;;;;;5114077;28;20047;-79
2024/01/13 01:03:00;;;;;;;8.10;1.80;;;;;;;;;;5114456;28;20458;-80
2024/01/13 01:05:27;;;;;;;4.10;1.33;;;;;;;;;;5095982;28;20043;-79
2024/01/13 01:07:53;;;;;;;7.53;1.52;;;;;;;;;;5096128;28;20142;-79
2024/01/13 01:10:19;;;;;;;5.88;1.77;;;;;;;;;;5095880;28;20047;-79
2024/01/13 01:12:45;;;;;;;6.53;1.50;;;;;;;;;;5114635;28;20096;-78
2024/01/13 01:15:11;;;;;;;6.38;1.48;;;;;;;;;;5095964;28;20048;-79
2024/01/13 01:17:37;;;;;;;6.82;1.65;;;;;;;;;;5114234;28;20050;-79
2024/01/13 01:20:03;;;;;;;4.82;1.30;;;;;;;;;;5114094;28;20372;-79
2024/01/13 01:22:29;;;;;;;4.65;1.33;;;;;;;;;;5113926;28;20130;-79
2024/01/13 01:24:55;;;;;;;4.55;1.05;;;;;;;;;;5113519;28;20494;-80
2024/01/13 01:27:22;;;;;;;5.20;1.40;;;;;;;;;;5096344;28;20043;-78
2024/01/13 01:29:48;;;;;;;5.60;1.40;;;;;;;;;;5113797;28;20040;-80
2024/01/13 01:32:14;;;;;;;4.65;1.50;;;;;;;;;;5113807;28;20048;-79
2024/01/13 01:34:40;;;;;;;6.63;1.80;;;;;;;;;;5079812;28;20048;-80
2024/01/13 01:37:06;;;;;;;4.70;1.60;;;;;;;;;;5095686;28;20089;-81
2024/01/13 01:39:32;;;;;;;5.72;1.77;;;;;;;;;;5113933;28;20055;-79
2024/01/13 01:41:58;;;;;;;6.47;1.83;;;;;;;;;;5113578;28;20439;-79
2024/01/13 01:44:24;;;;;;;6.20;1.70;;;;;;;;;;5113547;28;20051;-79
2024/01/13 01:46:50;;;;;;;6.97;1.90;;;;;;;;;;5095613;28;20051;-80
2024/01/13 01:49:17;;;;;;;7.38;2.17;;;;;;;;;;5113580;28;20047;-79
2024/01/13 01:51:43;;;;;;;5.63;1.83;;;;;;;;;;5099052;28;20058;-80
2024/01/13 01:54:10;;;;;;;7.18;2.03;;;;;;;;;;5117542;28;20497;-79
2024/01/13 01:56:36;;;;;;;7.63;2.50;;;;;;;;;;5099437;28;20047;-80
2024/01/13 01:59:03;;;;;;;6.78;2.40;;;;;;;;;;5082416;28;20304;-78
2024/01/13 02:01:30;;;;;;;6.53;2.07;;;;;;;;;;5099272;28;20079;-78
2024/01/13 02:03:56;;;;;;;;;;;;;;;;;;5100018;28;20293;-79
2024/01/13 02:06:22;;;;;;;6.38;2.33;;;;;;;;;;5099693;28;19949;-80
2024/01/13 02:08:49;;;;;;;6.50;2.35;;;;;;;;;;5082605;28;20055;-80
2024/01/13 02:11:15;;;;;;;6.47;2.65;;;;;;;;;;5117435;28;20388;-78
2024/01/13 02:13:42;;;;;;;8.63;2.63;;;;;;;;;;5099726;28;20083;-80
2024/01/13 02:16:09;;;;;;;8.45;2.88;;;;;;;;;;5117402;28;20047;-78
2024/01/13 02:18:35;;;;;;;6.70;2.35;;;;;;;;;;5117877;28;20131;-79
2024/01/13 02:21:01;;;;;;;6.88;2.08;;;;;;;;;;5117555;28;20047;-79
2024/01/13 02:23:27;;;;;;;8.95;2.70;;;;;;;;;;5117275;28;20075;-80
2024/01/13 02:25:53;;;;;;;7.70;2.35;;;;;;;;;;5098529;28;20055;-79
2024/01/13 02:28:19;;;;;;;7.60;2.58;;;;;;;;;;5082070;28;20051;-79
2024/01/13 02:30:45;;;;;;;8.88;2.22;;;;;;;;;;5082237;28;20047;-80
2024/01/13 02:33:11;;;;;;;7.15;2.25;;;;;;;;;;5117227;28;20058;-80
2024/01/13 02:35:37;;;;;;;8.07;1.98;;;;;;;;;;5099024;28;20052;-80
2024/01/13 02:38:03;;;;;;;7.32;2.50;;;;;;;;;;5116851;28;20085;-78
2024/01/13 02:40:29;;;;;;;6.53;1.98;;;;;;;;;;5081700;28;20040;-81
2024/01/13 02:42:55;;;;;;;7.28;2.00;;;;;;;;;;5098592;28;20047;-79
2024/01/13 02:45:22;;;;;;;7.97;2.30;;;;;;;;;;5117246;28;20079;-79
2024/01/13 02:48:08;;;;;;;7.82;2.10;;;;;;;;;;5098552;28;20053;-79
2024/01/13 02:50:34;;;;;;;6.30;2.42;;;;;;;;;;5098651;28;20051;-80
2024/01/13 02:53:00;;;;;;;7.90;2.40;;;;;;;;;;5098162;28;20054;-79
2024/01/13 02:55:26;;;;;;;7.38;2.47;;;;;;;;;;5098558;28;20594;-80
2024/01/13 02:57:52;;;;;;;9.23;2.10;;;;;;;;;;5116144;28;20048;-80
2024/01/13 03:00:19;;;;;;;7.57;2.70;;;;;;;;;;5098609;28;20126;-78
2024/01/13 03:02:45;;;;;;;7.80;2.60;;;;;;;;;;5097853;28;20044;-79
2024/01/13 03:05:11;;;;;;;6.68;2.40;;;;;;;;;;5116737;28;20040;-79
2024/01/13 03:07:37;;;;;;;10.10;2.65;;;;;;;;;;5115706;28;20043;-80
2024/01/13 03:10:03;;;;;;;7.93;2.85;;;;;;;;;;5098063;28;20041;-80
2024/01/13 03:12:29;;;;;;;8.35;3.10;;;;;;;;;;5116093;28;20050;-79
2024/01/13 03:14:56;;;;;;;6.38;2.00;;;;;;;;;;5097632;28;20047;-81
2024/01/13 03:17:22;;;;;;;6.72;2.63;;;;;;;;;;5115879;28;20042;-80
2024/01/13 03:19:48;;;;;;;7.20;2.67;;;;;;;;;;5115915;28;20070;-81
2024/01/13 03:22:14;;;;;;;8.18;2.15;;;;;;;;;;5115867;28;20391;-80
2024/01/13 03:24:41;;;;;;;8.95;2.75;;;;;;;;;;5115468;28;20050;-81
2024/01/13 03:27:07;;;;;;;9.35;3.05;;;;;;;;;;5097557;28;20055;-80
2024/01/13 03:29:33;;;;;;;6.25;2.35;;;;;;;;;;5080620;28;20086;-80
2024/01/13 03:31:59;;;;;;;6.47;1.92;;;;;;;;;;5097429;28;20434;-79
2024/01/13 03:34:25;;;;;;;7.47;2.17;;;;;;;;;;5115575;28;20141;-81
2024/01/13 03:36:51;;;;;;;8.70;3.90;;;;;;;;;;5115551;28;20388;-80
2024/01/13 03:39:17;;;;;;;7.93;2.53;;;;;;;;;;5116254;28;20051;-80
2024/01/13 03:41:43;;;;;;;7.78;2.60;;;;;;;;;;5115281;28;20054;-78
2024/01/13 03:44:09;;;;;;;11.32;3.05;;;;;;;;;;5097080;28;20100;-80
2024/01/13 03:46:35;;;;;;;8.05;2.45;;;;;;;;;;5115366;28;20131;-80
2024/01/13 03:49:01;;;;;;;8.80;2.58;;;;;;;;;;5097175;28;20040;-80
2024/01/13 03:51:27;;;;;;;7.85;2.63;;;;;;;;;;5097097;28;20054;-79
2024/01/13 03:53:53;;;;;;;8.43;2.35;;;;;;;;;;5097396;28;20127;-81
2024/01/13 03:56:19;;;;;;;7.35;2.45;;;;;;;;;;5115301;28;20155;-81
2024/01/13 03:58:45;;;;;;;8.90;2.70;;;;;;;;;;5097562;28;20379;-78
2024/01/13 04:01:11;;;;;;;9.15;2.67;;;;;;;;;;5115398;28;20047;-79
2024/01/13 04:03:38;;;;;;;12.18;3.03;;;;;;;;;;5115008;28;20039;-79
2024/01/13 04:06:04;;;;;;;7.78;2.78;;;;;;;;;;5096593;28;20499;-78
2024/01/13 04:08:30;;;;;;;8.05;2.20;;;;;;;;;;5096742;28;20100;-80
2024/01/13 04:10:56;;;;;;;9.90;2.90;;;;;;;;;;5114667;28;20586;-80
2024/01/13 04:13:22;;;;;;;6.85;2.67;;;;;;;;;;5115018;28;20051;-80
2024/01/13 04:15:48;;;;;;;11.80;2.83;;;;;;;;;;5115217;28;20043;-78
2024/01/13 04:18:14;;;;;;;10.25;3.00;;;;;;;;;;5115809;28;20040;-81
2024/01/13 04:20:40;;;;;;;8.57;2.55;;;;;;;;;;5097684;28;20109;-80
2024/01/13 04:23:06;;;;;;;9.80;2.72;;;;;;;;;;5096857;28;20105;-79
2024/01/13 04:25:33;;;;;;;13.18;3.75;;;;;;;;;;5096375;28;20112;-80
2024/01/13 04:28:01;;;;;;;7.60;2.65;;;;;;;;;;5096998;28;20047;-79
2024/01/13 04:30:28;;;;;;;9.43;2.25;;;;;;;;;;5114639;28;20051;-80
2024/01/13 04:32:54;;;;;;;9.18;2.88;;;;;;;;;;5114485;28;20510;-80
2024/01/13 04:35:20;;;;;;;8.07;2.10;;;;;;;;;;5114376;28;20157;-80
2024/01/13 04:37:46;;;;;;;10.00;2.38;;;;;;;;;;5096240;28;20039;-81
2024/01/13 04:40:12;;;;;;;9.23;2.58;;;;;;;;;;5114300;28;20435;-80
2024/01/13 04:42:38;;;;;;;8.45;2.95;;;;;;;;;;5095975;28;20173;-80
2024/01/13 04:45:04;;;;;;;6.82;1.90;;;;;;;;;;5095945;28;20039;-79
2024/01/13 04:47:31;;;;;;;6.43;1.85;;;;;;;;;;5079820;28;20044;-81
2024/01/13 04:49:57;;;;;;;7.35;1.80;;;;;;;;;;5096713;28;20107;-80
2024/01/13 04:52:23;;;;;;;5.70;1.80;;;;;;;;;;5096284;28;20051;-79
2024/01/13 04:54:49;;;;;;;7.32;1.80;;;;;;;;;;5096121;28;20043;-82
2024/01/13 04:57:15;;;;;;;6.82;1.83;;;;;;;;;;5096026;28;20126;-81
2024/01/13 04:59:41;;;;;;;6.35;1.60;;;;;;;;;;5096168;28;20051;-79
2024/01/13 05:02:07;;;;;;;7.57;2.00;;;;;;;;;;5113956;28;20051;-81
2024/01/13 05:04:33;;;;;;;5.05;1.80;;;;;;;;;;5113968;28;20093;-80
2024/01/13 05:06:59;;;;;;;8.77;1.90;;;;;;;;;;5096266;28;20047;-82
2024/01/13 05:09:25;;;;;;;6.22;1.98;;;;;;;;;;5079683;28;20043;-80
2024/01/13 05:11:52;;;;;;;7.30;2.00;;;;;;;;;;5114652;28;20083;-80
2024/01/13 05:14:19;;;;;;;7.70;1.90;;;;;;;;;;5079629;28;20054;-79
2024/01/13 05:16:45;;;;;;;6.15;1.45;;;;;;;;;;5095765;28;20046;-81
2024/01/13 05:19:11;;;;;;;5.93;1.63;;;;;;;;;;5095303;28;20039;-81
2024/01/13 05:21:37;;;;;;;7.70;1.67;;;;;;;;;;5095957;28;20128;-82
2024/01/13 05:24:04;;;;;;;6.28;1.85;;;;;;;;;;5095668;28;20400;-79
2024/01/13 05:26:30;;;;;;;5.03;1.40;;;;;;;;;;5117199;28;20062;-80
2024/01/13 05:28:56;;;;;;;7.47;1.75;;;;;;;;;;5118044;28;20051;-80
2024/01/13 05:31:22;;;;;;;6.82;1.65;;;;;;;;;;5100728;28;20096;-80
2024/01/13 05:33:48;;;;;;;7.45;1.75;;;;;;;;;;5117489;28;20552;-79
2024/01/13 05:36:16;;;;;;;5.57;1.55;;;;;;;;;;5099866;28;20075;-80
2024/01/13 05:38:42;;;;;;;5.05;1.48;;;;;;;;;;5118518;28;20123;-80
2024/01/13 05:41:08;;;;;;;8.15;1.60;;;;;;;;;;5117764;28;20093;-80
2024/01/13 05:43:34;;;;;;;7.13;1.88;;;;;;;;;;5117406;28;20044;-79
2024/01/13 05:46:01;;;;;;;5.65;1.92;;;;;;;;;;5118411;28;20425;-77
2024/01/13 05:48:27;;;;;;;10.43;2.25;;;;;;;;;;5117631;28;20039;-79
2024/01/13 05:50:53;;;;;;;8.77;1.90;;;;;;;;;;5118352;28;20048;-79
2024/01/13 05:53:19;;;;;;;5.72;1.70;;;;;;;;;;5117408;28;20475;-79
2024/01/13 05:55:45;;;;;;;5.45;1.55;;;;;;;;;;5117993;28;20051;-79
2024/01/13 05:58:11;;;;;;;7.07;1.60;;;;;;;;;;5099227;28;20479;-79
2024/01/13 06:00:37;;;;;;;7.93;1.77;;;;;;;;;;5082496;28;20131;-79
2024/01/13 06:03:04;;;;;;;8.15;2.05;;;;;;;;;;5100140;28;20134;-80
2024/01/13 06:05:31;;;;;;;7.05;1.95;;;;;;;;;;5117239;28;20112;-79
2024/01/13 06:07:57;;;;;;;4.13;1.20;;;;;;;;;;5099257;28;20055;-79
2024/01/13 06:10:23;;;;;;;5.95;1.83;;;;;;;;;;5117230;28;20047;-82
2024/01/13 06:12:49;;;;;;;10.07;2.17;;;;;;;;;;5100248;28;20192;-79
2024/01/13 06:15:15;;;;;;;9.25;2.20;;;;;;;;;;5099397;28;20040;-79
2024/01/13 06:17:42;;;;;;;7.35;2.08;;;;;;;;;;5081963;28;20476;-81
2024/01/13 06:20:08;;;;;;;7.55;2.47;;;;;;;;;;5098977;28;20054;-80
2024/01/13 06:22:35;;;;;;;8.45;1.88;;;;;;;;;;5099858;28;20058;-79
2024/01/13 06:25:01;;;;;;;8.02;2.65;;;;;;;;;;5116884;28;20079;-79
2024/01/13 06:27:27;;;;;;;7.43;2.42;;;;;;;;;;5116660;28;20058;-78
2024/01/13 06:29:53;;;;;;;7.28;2.50;;;;;;;;;;5098879;28;20135;-78
2024/01/13 06:32:19;;;;;;;7.57;2.00;;;;;;;;;;5098793;28;20054;-79
2024/01/13 06:34:45;;;;;;;9.65;2.65;;;;;;;;;;5099181;28;20054;-79
2024/01/13 06:37:11;;;;;;;9.35;2.25;;;;;;;;;;5097723;28;20050;-78
2024/01/13 06:39:38;;;;;;;6.85;2.10;;;;;;;;;;5098483;28;20051;-80
2024/01/13 06:42:06;;;;;;;7.63;2.00;;;;;;;;;;5098102;28;20123;-78
2024/01/13 06:44:33;;;;;;;8.07;2.40;;;;;;;;;;5116458;28;20048;-80
2024/01/13 06:46:59;;;;;;;7.25;2.00;;;;;;;;;;5117079;28;20052;-78
2024/01/13 06:49:25;;;;;;;5.90;1.80;;;;;;;;;;5116373;28;20048;-79
2024/01/13 06:51:51;;;;;;;7.40;1.92;;;;;;;;;;5098133;28;20055;-82
2024/01/13 06:54:18;;;;;;;11.18;2.35;;;;;;;;;;5115965;28;20503;-79
2024/01/13 06:56:44;;;;;;;8.57;2.30;;;;;;;;;;5098071;28;20043;-79
2024/01/13 06:59:11;;;;;;;7.80;2.20;;;;;;;;;;5116245;28;20044;-79
2024/01/13 07:01:37;;;;;;;8.73;2.30;;;;;;;;;;5116241;28;20150;-80
2024/01/13 07:04:03;;;;;;;5.63;2.25;;;;;;;;;;5098766;28;20090;-79
2024/01/13 07:06:29;;;;;;;8.07;2.60;;;;;;;;;;5098935;28;20043;-79
2024/01/13 07:08:57;;;;;;;7.75;2.10;;;;;;;;;;5098032;28;20040;-81
2024/01/13 07:11:23;;;;;;;8.45;2.13;;;;;;;;;;5116013;28;20100;-77
2024/01/13 07:13:49;;;;;;;6.00;1.77;;;;;;;;;;5115920;28;20039;-80
2024/01/13 07:16:15;;;;;;;6.88;2.03;;;;;;;;;;5115970;28;20051;-79
2024/01/13 07:18:41;;;;;;;7.07;1.95;;;;;;;;;;5116097;28;20079;-80
2024/01/13 07:21:07;;;;;;;6.65;2.00;;;;;;;;;;5116398;28;20044;-78
2024/01/13 07:23:34;;;;;;;6.28;2.13;;;;;;;;;;5115768;28;20036;-79
2024/01/13 07:26:01;;;;;;;8.85;2.40;;;;;;;;;;5116057;28;20119;-79
2024/01/13 07:28:27;;;;;;;7.60;2.00;;;;;;;;;;5116000;28;20422;-79
2024/01/13 07:30:54;;;;;;;6.40;2.30;;;;;;;;;;5097676;28;20486;-78
2024/01/13 07:33:20;;;;;;;6.78;1.73;;;;;;;;;;5115625;28;20136;-81
2024/01/13 07:35:46;;;;;;;8.90;2.40;;;;;;;;;;5097768;28;20051;-79
2024/01/13 07:38:13;;;;;;;7.13;2.50;;;;;;;;;;5080466;28;20040;-79
2024/01/13 07:40:39;;;;;;;;;;;;;;;;;;5097661;28;20044;-79
2024/01/13 07:43:05;;;;;;;7.30;2.13;;;;;;;;;;5131812;27;20020;-79
2024/01/13 07:45:31;;;;;;;6.05;1.73;;;;;;;;;;5097211;28;20047;-79
2024/01/13 07:47:57;;;;;;;7.63;1.90;;;;;;;;;;5114562;28;20388;-78
2024/01/13 07:50:24;;;;;;;5.22;1.90;;;;;;;;;;5115214;28;20039;-79
2024/01/13 07:52:50;;;;;;;8.35;2.30;;;;;;;;;;5097363;28;20055;-78
2024/01/13 07:55:16;;;;;;;6.53;2.38;;;;;;;;;;5097533;28;20461;-79
2024/01/13 07:57:42;;;;;;;6.55;2.05;;;;;;;;;;5097119;28;20039;-79
2024/01/13 08:00:09;;;;;;;7.10;2.03;;;;;;;;;;5115606;28;20044;-79
2024/01/13 08:02:35;;;;;;;7.55;2.63;;;;;;;;;;5115499;28;20126;-78
2024/01/13 08:05:01;;;;;;;8.73;2.97;;;;;;;;;;5115038;28;20052;-81
2024/01/13 08:07:27;;;;;;;7.13;2.53;;;;;;;;;;5114930;28;20040;-78
2024/01/13 08:09:53;;;;;;;8.02;2.10;;;;;;;;;;5114999;28;20092;-78
2024/01/13 08:12:19;;;;;;;7.45;2.20;;;;;;;;;;5114877;28;20127;-78
2024/01/13 08:14:45;;;;;;;6.63;1.98;;;;;;;;;;5096747;28;20182;-78
2024/01/13 08:17:12;;;;;;;7.13;2.15;;;;;;;;;;5114258;28;20047;-78
2024/01/13 08:19:38;;;;;;;7.68;2.15;;;;;;;;;;5096925;28;20050;-78
2024/01/13 08:22:04;;;;;;;6.88;1.80;;;;;;;;;;5096719;28;20136;-80
2024/01/13 08:24:31;;;;;;;6.07;1.52;;;;;;;;;;5096584;28;20132;-76
2024/01/13 08:26:57;;;;;;;6.37;2.17;;;;;;;;;;5078970;28;20164;-76
2024/01/13 08:29:23;;;;;;;8.05;2.30;;;;;;;;;;5079717;28;20376;-79
2024/01/13 08:31:50;;;;;;;7.63;2.53;;;;;;;;;;5096920;28;20052;-81
2024/01/13 08:34:17;;;;;;;8.63;2.13;;;;;;;;;;5116668;28;20055;-76
2024/01/13 08:36:43;;;;;;;8.60;3.10;;;;;;;;;;5115278;28;20051;-77
2024/01/13 08:39:10;;;;;;;10.45;3.30;;;;;;;;;;5114817;28;20429;-77
2024/01/13 08:41:36;;;;;;;10.30;3.42;;;;;;;;;;5114449;28;20158;-78
2024/01/13 08:44:02;;;;;;;14.23;4.00;;;;;;;;;;5097600;28;20058;-79
2024/01/13 08:46:29;;;;;;;15.65;4.22;;;;;;;;;;5114776;28;20050;-77
2024/01/13 08:48:55;;;;;;;18.10;4.80;;;;;;;;;;5096884;28;20051;-77
2024/01/13 08:51:21;;;;;;;20.13;5.70;;;;;;;;;;5114697;28;20097;-82
2024/01/13 08:53:47;;;;;;;21.77;5.55;;;;;;;;;;5115322;28;20142;-80
2024/01/13 08:56:14;;;;;;;21.95;6.63;;;;;;;;;;5114801;28;20368;-78
2024/01/13 08:58:40;;;;;;;24.73;7.45;;;;;;;;;;5114109;28;20043;-83
2024/01/13 09:01:06;;;;;;;28.75;8.55;;;;;;;;;;5114198;28;20051;-80
2024/01/13 09:03:32;;;;;;;24.95;7.55;;;;;;;;;;5114216;28;20073;-80
2024/01/13 09:05:58;;;;;;;27.67;8.73;;;;;;;;;;5114688;28;20047;-78
2024/01/13 09:08:24;;;;;;;34.08;10.32;;;;;;;;;;5114466;28;20055;-79
2024/01/13 09:10:50;;;;;;;30.98;8.52;;;;;;;;;;5114493;28;20149;-79
2024/01/13 09:13:16;;;;;;;37.25;9.55;;;;;;;;;;5114262;28;20051;-79
2024/01/13 09:15:42;;;;;;;36.45;11.65;;;;;;;;;;5114074;28;20116;-79
2024/01/13 09:18:08;;;;;;;40.00;10.07;;;;;;;;;;5095736;28;20095;-78
2024/01/13 09:20:35;;;;;;;37.40;9.82;;;;;;;;;;5095710;28;20478;-76
2024/01/13 09:23:01;;;;;;;39.03;9.85;;;;;;;;;;5096081;28;20058;-79
2024/01/13 09:25:27;;;;;;;33.67;10.25;;;;;;;;;;5078788;28;20070;-76
2024/01/13 09:27:53;;;;;;;43.53;12.98;;;;;;;;;;5113675;28;20051;-79
2024/01/13 09:30:19;;;;;;;36.55;11.35;;;;;;;;;;5095577;28;20047;-78
2024/01/13 09:32:46;;;;;;;39.83;11.67;;;;;;;;;;5114190;28;20048;-78
2024/01/13 09:35:12;;;;;;;48.58;12.68;;;;;;;;;;5095704;28;20476;-78
2024/01/13 09:37:38;;;;;;;42.17;11.82;;;;;;;;;;5113504;28;20043;-78
2024/01/13 09:40:04;;;;;;;41.20;12.73;;;;;;;;;;5114302;28;20051;-79
2024/01/13 09:42:31;;;;;;;44.70;12.80;;;;;;;;;;5095591;28;20066;-79
2024/01/13 09:44:57;;;;;;;43.55;12.63;;;;;;;;;;5113579;28;20058;-79
2024/01/13 09:47:23;;;;;;;47.53;13.33;;;;;;;;;;5113548;28;20086;-80
2024/01/13 09:49:53;;;;;;;47.25;14.05;;;;;;;;;;5113520;28;20050;-78
2024/01/13 09:52:20;;;;;;;43.38;12.48;;;;;;;;;;5095616;28;20059;-78
2024/01/13 09:54:48;;;;;;;50.15;13.98;;;;;;;;;;5095354;28;20047;-78
2024/01/13 09:57:14;;;;;;;45.47;12.57;;;;;;;;;;5078575;28;20054;-78
2024/01/13 09:59:41;;;;;;;41.03;13.13;;;;;;;;;;5113443;28;20055;-79
2024/01/13 10:02:13;;;;;;;47.65;13.98;;;;;;;;;;5095575;28;20487;-77
2024/01/13 10:04:40;;;;;;;47.65;14.48;;;;;;;;;;5113672;28;20541;-79
2024/01/13 10:07:06;;;;;;;;;;;;;;;;;;5113857;28;20126;-78
2024/01/13 10:09:32;;;;;;;40.60;13.80;;;;;;;;;;5113334;28;20355;-78
2024/01/13 10:11:58;;;;;;;49.35;15.18;;;;;;;;;;5115380;28;20173;-78
2024/01/13 10:14:24;;;;;;;41.17;14.15;;;;;;;;;;5099501;28;20054;-79
2024/01/13 10:16:50;;;;;;;49.47;16.77;;;;;;;;;;5098978;28;20466;-78
2024/01/13 10:19:17;;;;;;;47.42;15.65;;;;;;;;;;5098780;28;20047;-77
2024/01/13 10:21:43;;;;;;;46.47;14.23;;;;;;;;;;5098703;28;20043;-79
2024/01/13 10:24:09;;;;;;;45.45;14.93;;;;;;;;;;5098915;28;20043;-78
2024/01/13 10:26:35;;;;;;;38.92;14.05;;;;;;;;;;5116562;28;20055;-78
2024/01/13 10:29:01;;;;;;;46.50;14.55;;;;;;;;;;5116801;28;20055;-79
2024/01/13 10:31:27;;;;;;;38.92;13.32;;;;;;;;;;5099578;28;20054;-78
2024/01/13 10:33:54;;;;;;;38.33;13.37;;;;;;;;;;5117088;28;20499;-79
2024/01/13 10:36:22;;;;;;;40.00;14.27;;;;;;;;;;5098748;28;20040;-80
2024/01/13 10:38:49;;;;;;;39.65;14.10;;;;;;;;;;5116569;28;20093;-80
2024/01/13 10:41:15;;;;;;;;;;;;;;;;;;5098845;28;20567;-79
2024/01/13 10:43:43;;;;;;;42.58;14.98;;;;;;;;;;5132880;27;19927;-80
2024/01/13 10:46:13;;;;;;;46.15;15.60;;;;;;;;;;5116993;28;20051;-79
2024/01/13 10:48:44;;;;;;;48.90;16.92;;;;;;;;;;5116863;28;20126;-79
2024/01/13 10:51:19;;;;;;;52.80;18.95;;;;;;;;;;5116353;28;20051;-79
2024/01/13 10:53:46;;;;;;;45.72;16.90;;;;;;;;;;5082434;28;20043;-79
2024/01/13 10:56:12;;;;;;;49.53;18.45;;;;;;;;;;5116046;28;20507;-74
2024/01/13 10:58:39;;;;;;;49.58;18.27;;;;;;;;;;5116236;28;20148;-79
2024/01/13 11:01:05;;;;;;;48.97;18.65;;;;;;;;;;5098619;28;20043;-78
2024/01/13 11:03:32;;;;;;;53.87;19.23;;;;;;;;;;5081087;28;20051;-78
2024/01/13 11:05:58;;;;;;;53.58;19.50;;;;;;;;;;5098881;28;20774;-78
2024/01/13 11:08:24;;;;;;;50.83;18.95;;;;;;;;;;5116325;28;20085;-80
2024/01/13 11:10:51;;;;;;;54.58;21.15;;;;;;;;;;5116027;28;20040;-78
2024/01/13 11:13:22;;;;;;;56.60;20.08;;;;;;;;;;5116323;28;20050;-79
2024/01/13 11:15:48;;;;;;;54.00;20.13;;;;;;;;;;5098401;28;20044;-78
2024/01/13 11:18:18;;;;;;;54.33;21.13;;;;;;;;;;5115843;28;20437;-77
2024/01/13 11:21:04;;;;;;;58.03;22.50;;;;;;;;;;5098112;28;20108;-79
2024/01/13 11:23:49;;;;;;;60.78;20.88;;;;;;;;;;5097626;28;20044;-78
2024/01/13 11:26:16;;;;;;;59.05;20.92;;;;;;;;;;5115481;28;20063;-78
2024/01/13 11:28:52;;;;;;;59.17;20.55;;;;;;;;;;5081619;28;20464;-77
2024/01/13 11:31:38;;;;;;;60.45;21.30;;;;;;;;;;5115889;28;20053;-79
2024/01/13 11:34:08;;;;;;;58.35;20.27;;;;;;;;;;5097650;28;20569;-79
2024/01/13 11:36:35;;;;;;;58.10;22.27;;;;;;;;;;5115689;28;20066;-79
2024/01/13 11:39:01;;;;;;;63.35;22.10;;;;;;;;;;5080983;28;20498;-77
2024/01/13 11:41:40;;;;;;;59.80;20.85;;;;;;;;;;5098072;28;20090;-79
2024/01/13 11:44:10;;;;;;;59.30;20.70;;;;;;;;;;5115565;28;20043;-78
2024/01/13 11:46:38;;;;;;;61.50;23.60;;;;;;;;;;5115750;28;20105;-79
2024/01/13 11:49:04;;;;;;;62.35;21.25;;;;;;;;;;5098227;28;20035;-78
2024/01/13 11:51:49;;;;;;;59.33;19.92;;;;;;;;;;5097910;28;20364;-79
2024/01/13 11:54:16;;;;;;;54.08;22.05;;;;;;;;;;5116134;28;20047;-79
2024/01/13 11:56:43;;;;;;;63.38;21.17;;;;;;;;;;5080495;28;20471;-80
2024/01/13 11:59:09;;;;;;;;;;;;;;;;;;5116320;28;20050;-76
2024/01/13 12:01:35;;;;;;;55.30;18.85;;;;;;;;;;5098402;28;20014;-79
2024/01/13 12:04:01;;;;;;;56.60;19.45;;;;;;;;;;5097565;28;20086;-80
2024/01/13 12:06:28;;;;;;;58.67;21.30;;;;;;;;;;5097448;28;20041;-79
2024/01/13 12:08:54;;;;;;;53.30;19.42;;;;;;;;;;5115379;28;20088;-79
2024/01/13 12:11:22;;;;;;;49.83;19.45;;;;;;;;;;5097407;28;20066;-78
2024/01/13 12:13:48;;;;;;;51.10;19.65;;;;;;;;;;5115046;28;20056;-78
2024/01/13 12:16:14;;;;;;;53.40;19.88;;;;;;;;;;5079734;28;20557;-78
2024/01/13 12:18:45;;;;;;;50.53;19.23;;;;;;;;;;5115490;28;20360;-80
2024/01/13 12:21:13;;;;;;;57.05;21.63;;;;;;;;;;5096918;28;20100;-81
2024/01/13 12:23:40;;;;;;;53.90;20.83;;;;;;;;;;5097038;28;20385;-79
2024/01/13 12:26:06;;;;;;;57.77;18.43;;;;;;;;;;5115255;28;20074;-78
2024/01/13 12:28:33;;;;;;;52.25;18.52;;;;;;;;;;5080727;28;20047;-79
2024/01/13 12:31:02;;;;;;;51.80;18.88;;;;;;;;;;5114924;28;20094;-79
2024/01/13 12:33:28;;;;;;;53.13;19.10;;;;;;;;;;5114710;28;20544;-79
2024/01/13 12:36:01;;;;;;;42.67;17.20;;;;;;;;;;5096921;28;20551;-80
2024/01/13 12:38:27;;;;;;;49.60;18.40;;;;;;;;;;5115164;28;20043;-79
2024/01/13 12:40:54;;;;;;;46.17;18.20;;;;;;;;;;5080817;28;20040;-78
2024/01/13 12:43:21;;;;;;;52.53;19.38;;;;;;;;;;5096391;28;20495;-78
2024/01/13 12:45:52;;;;;;;47.33;17.48;;;;;;;;;;5114889;28;20067;-79
2024/01/13 12:48:18;;;;;;;43.63;17.65;;;;;;;;;;5114744;28;20040;-78
2024/01/13 12:50:44;;;;;;;51.08;16.77;;;;;;;;;;5096572;28;20048;-78
2024/01/13 12:53:11;;;;;;;47.53;16.88;;;;;;;;;;5096238;28;20058;-78
2024/01/13 12:55:38;;;;;;;43.15;16.85;;;;;;;;;;5114236;28;20048;-78
2024/01/13 12:58:04;;;;;;;45.38;16.55;;;;;;;;;;5096859;28;20127;-77
2024/01/13 13:00:31;;;;;;;43.50;15.57;;;;;;;;;;5114840;28;20477;-79
2024/01/13 13:02:57;;;;;;;39.03;15.93;;;;;;;;;;5096213;28;20387;-78
2024/01/13 13:05:23;;;;;;;37.63;14.23;;;;;;;;;;5096074;28;20047;-78
2024/01/13 13:07:50;;;;;;;41.17;15.33;;;;;;;;;;5114271;28;20078;-77
2024/01/13 13:10:18;;;;;;;41.13;15.25;;;;;;;;;;5114542;28;20328;-79
2024/01/13 13:12:44;;;;;;;35.38;13.52;;;;;;;;;;5114279;28;20052;-79
2024/01/13 13:15:10;;;;;;;37.75;14.65;;;;;;;;;;5096450;28;20367;-79
2024/01/13 13:17:36;;;;;;;40.47;13.85;;;;;;;;;;5114643;28;20047;-77
2024/01/13 13:20:03;;;;;;;34.78;13.35;;;;;;;;;;5113932;28;20048;-78
2024/01/13 13:22:29;;;;;;;34.08;13.68;;;;;;;;;;5095777;28;20047;-78
2024/01/13 13:24:55;;;;;;;36.80;14.00;;;;;;;;;;5095823;28;20051;-76
2024/01/13 13:27:21;;;;;;;32.03;13.02;;;;;;;;;;5114171;28;20059;-78
2024/01/13 13:29:48;;;;;;;36.70;11.87;;;;;;;;;;5113616;28;20056;-79
2024/01/13 13:32:15;;;;;;;31.30;12.75;;;;;;;;;;5113723;28;20044;-78
2024/01/13 13:34:41;;;;;;;34.47;12.18;;;;;;;;;;5113900;28;20051;-78
2024/01/13 13:37:09;;;;;;;30.77;11.57;;;;;;;;;;5095870;28;20048;-78
2024/01/13 13:39:37;;;;;;;32.13;12.88;;;;;;;;;;5095550;28;20446;-79
2024/01/13 13:42:04;;;;;;;29.60;11.48;;;;;;;;;;5114307;28;20127;-79
2024/01/13 13:44:32;;;;;;;28.77;11.52;;;;;;;;;;5096428;28;20054;-78
2024/01/13 13:46:59;;;;;;;34.25;12.18;;;;;;;;;;5098356;28;20059;-79
2024/01/13 13:49:25;;;;;;;28.63;11.13;;;;;;;;;;5117854;28;20083;-77
2024/01/13 13:51:53;;;;;;;35.05;10.82;;;;;;;;;;5100093;28;20083;-78
2024/01/13 13:54:20;;;;;;;32.25;10.90;;;;;;;;;;5099251;28;20567;-79
2024/01/13 13:56:46;;;;;;;33.88;10.82;;;;;;;;;;5117579;28;20047;-78
2024/01/13 13:59:12;;;;;;;27.00;10.35;;;;;;;;;;5117188;28;20046;-79
2024/01/13 14:01:38;;;;;;;29.80;12.00;;;;;;;;;;5099696;28;20050;-80
2024/01/13 14:04:04;;;;;;;34.28;12.02;;;;;;;;;;5118050;28;20043;-80
2024/01/13 14:06:31;;;;;;;31.38;11.23;;;;;;;;;;5100156;28;20048;-80
2024/01/13 14:08:57;;;;;;;28.20;10.38;;;;;;;;;;5118817;28;20040;-79
2024/01/13 14:11:23;;;;;;;28.38;10.25;;;;;;;;;;5099590;28;20046;-79
2024/01/13 14:13:49;;;;;;;30.33;9.77;;;;;;;;;;5118379;28;20383;-79
2024/01/13 14:16:16;;;;;;;34.30;10.80;;;;;;;;;;5117500;28;20085;-80
2024/01/13 14:18:47;;;;;;;20.88;8.43;;;;;;;;;;5099140;28;20071;-80
2024/01/13 14:21:23;;;;;;;27.27;11.00;;;;;;;;;;5118185;28;20048;-77
2024/01/13 14:23:49;;;;;;;23.13;8.52;;;;;;;;;;5099023;28;20051;-78
2024/01/13 14:26:15;;;;;;;22.45;8.30;;;;;;;;;;5098837;28;20419;-80
2024/01/13 14:28:41;;;;;;;24.60;8.68;;;;;;;;;;5117138;28;20051;-79
2024/01/13 14:31:07;;;;;;;23.27;8.98;;;;;;;;;;5099162;28;20044;-79